sensor_id;sensor_type;location;lat;lon;timestamp;P1;durP1;ratioP1;P2;durP2;ratioP2
48861;SDS011;34681;49.188;-0.374;2023-11-19T00:00:31;8.07;;;3.13;;
48861;SDS011;34681;49.188;-0.374;2023-11-19T00:02:56;11.80;;;3.27;;
48861;SDS011;34681;49.188;-0.374;2023-11-19T00:05:21;10.27;;;3.57;;
48861;SDS011;34681;49.188;-0.374;2023-11-19T00:07:47;12.27;;;4.23;;
48861;SDS011;34681;49.188;-0.374;2023-11-19T00:10:13;9.80;;;3.87;;
48861;SDS011;34681;49.188;-0.374;2023-11-19T00:12:42;10.53;;;3.30;;
48861;SDS011;34681;49.188;-0.374;2023-11-19T00:15:09;8.43;;;4.10;;
48861;SDS011;34681;49.188;-0.374;2023-11-19T00:17:37;4.90;;;2.70;;
48861;SDS011;34681;49.188;-0.374;2023-11-19T00:20:04;13.40;;;4.00;;
48861;SDS011;34681;49.188;-0.374;2023-11-19T00:22:31;9.60;;;3.20;;
48861;SDS011;34681;49.188;-0.374;2023-11-19T00:24:56;11.60;;;3.60;;
48861;SDS011;34681;49.188;-0.374;2023-11-19T00:27:21;8.03;;;3.23;;
48861;SDS011;34681;49.188;-0.374;2023-11-19T00:29:47;4.67;;;2.33;;
48861;SDS011;34681;49.188;-0.374;2023-11-19T00:32:12;8.53;;;3.60;;
48861;SDS011;34681;49.188;-0.374;2023-11-19T00:34:37;10.10;;;3.60;;
48861;SDS011;34681;49.188;-0.374;2023-11-19T00:37:03;10.53;;;3.67;;
48861;SDS011;34681;49.188;-0.374;2023-11-19T00:39:29;14.57;;;3.97;;
48861;SDS011;34681;49.188;-0.374;2023-11-19T00:41:54;7.03;;;3.43;;
48861;SDS011;34681;49.188;-0.374;2023-11-19T00:44:19;18.30;;;4.60;;
48861;SDS011;34681;49.188;-0.374;2023-11-19T00:46:44;6.67;;;3.00;;
48861;SDS011;34681;49.188;-0.374;2023-11-19T00:49:10;9.53;;;3.20;;
48861;SDS011;34681;49.188;-0.374;2023-11-19T00:51:36;9.00;;;3.17;;
48861;SDS011;34681;49.188;-0.374;2023-11-19T00:54:02;8.20;;;3.20;;
48861;SDS011;34681;49.188;-0.374;2023-11-19T00:56:28;7.87;;;4.00;;
48861;SDS011;34681;49.188;-0.374;2023-11-19T00:58:53;11.23;;;3.97;;
48861;SDS011;34681;49.188;-0.374;2023-11-19T01:01:19;9.47;;;3.17;;
48861;SDS011;34681;49.188;-0.374;2023-11-19T01:03:44;12.50;;;3.50;;
48861;SDS011;34681;49.188;-0.374;2023-11-19T01:06:10;11.43;;;3.37;;
48861;SDS011;34681;49.188;-0.374;2023-11-19T01:08:35;16.50;;;3.60;;
48861;SDS011;34681;49.188;-0.374;2023-11-19T01:11:01;8.47;;;3.87;;
48861;SDS011;34681;49.188;-0.374;2023-11-19T01:13:27;8.80;;;3.53;;
48861;SDS011;34681;49.188;-0.374;2023-11-19T01:15:52;15.53;;;3.83;;
48861;SDS011;34681;49.188;-0.374;2023-11-19T01:18:18;11.60;;;3.60;;
48861;SDS011;34681;49.188;-0.374;2023-11-19T01:20:43;11.13;;;3.50;;
48861;SDS011;34681;49.188;-0.374;2023-11-19T01:23:08;9.70;;;3.20;;
48861;SDS011;34681;49.188;-0.374;2023-11-19T01:25:34;15.70;;;3.30;;
48861;SDS011;34681;49.188;-0.374;2023-11-19T01:28:00;12.23;;;3.57;;
48861;SDS011;34681;49.188;-0.374;2023-11-19T01:30:27;8.33;;;4.10;;
48861;SDS011;34681;49.188;-0.374;2023-11-19T01:32:52;13.57;;;3.77;;
48861;SDS011;34681;49.188;-0.374;2023-11-19T01:35:18;14.80;;;3.97;;
48861;SDS011;34681;49.188;-0.374;2023-11-19T01:37:43;7.43;;;4.00;;
48861;SDS011;34681;49.188;-0.374;2023-11-19T01:40:08;13.97;;;4.37;;
48861;SDS011;34681;49.188;-0.374;2023-11-19T01:42:39;16.13;;;3.90;;
48861;SDS011;34681;49.188;-0.374;2023-11-19T01:45:05;12.20;;;3.83;;
48861;SDS011;34681;49.188;-0.374;2023-11-19T01:47:34;11.63;;;3.60;;
48861;SDS011;34681;49.188;-0.374;2023-11-19T01:50:00;11.70;;;3.37;;
48861;SDS011;34681;49.188;-0.374;2023-11-19T01:52:28;9.50;;;3.33;;
48861;SDS011;34681;49.188;-0.374;2023-11-19T01:54:54;13.37;;;4.00;;
48861;SDS011;34681;49.188;-0.374;2023-11-19T01:57:21;10.03;;;3.67;;
48861;SDS011;34681;49.188;-0.374;2023-11-19T01:59:48;12.23;;;3.80;;
48861;SDS011;34681;49.188;-0.374;2023-11-19T02:02:15;10.63;;;4.90;;
48861;SDS011;34681;49.188;-0.374;2023-11-19T02:04:45;9.53;;;3.47;;
48861;SDS011;34681;49.188;-0.374;2023-11-19T02:07:13;21.67;;;4.93;;
48861;SDS011;34681;49.188;-0.374;2023-11-19T02:09:41;13.40;;;4.53;;
48861;SDS011;34681;49.188;-0.374;2023-11-19T02:12:07;16.47;;;4.73;;
48861;SDS011;34681;49.188;-0.374;2023-11-19T02:14:33;11.43;;;3.67;;
48861;SDS011;34681;49.188;-0.374;2023-11-19T02:16:58;11.93;;;3.60;;
48861;SDS011;34681;49.188;-0.374;2023-11-19T02:19:23;9.73;;;3.80;;
48861;SDS011;34681;49.188;-0.374;2023-11-19T02:21:49;14.57;;;4.27;;
48861;SDS011;34681;49.188;-0.374;2023-11-19T02:24:14;6.20;;;3.10;;
48861;SDS011;34681;49.188;-0.374;2023-11-19T02:29:11;12.40;;;4.27;;
48861;SDS011;34681;49.188;-0.374;2023-11-19T02:31:37;16.33;;;3.73;;
48861;SDS011;34681;49.188;-0.374;2023-11-19T02:34:03;11.73;;;4.57;;
48861;SDS011;34681;49.188;-0.374;2023-11-19T02:36:28;9.20;;;4.10;;
48861;SDS011;34681;49.188;-0.374;2023-11-19T02:38:54;13.27;;;4.27;;
48861;SDS011;34681;49.188;-0.374;2023-11-19T02:41:20;15.17;;;5.03;;
48861;SDS011;34681;49.188;-0.374;2023-11-19T02:43:45;13.07;;;4.20;;
48861;SDS011;34681;49.188;-0.374;2023-11-19T02:46:13;14.03;;;4.53;;
48861;SDS011;34681;49.188;-0.374;2023-11-19T02:48:39;14.67;;;4.20;;
48861;SDS011;34681;49.188;-0.374;2023-11-19T02:51:04;12.50;;;4.00;;
48861;SDS011;34681;49.188;-0.374;2023-11-19T02:53:34;12.50;;;3.70;;
48861;SDS011;34681;49.188;-0.374;2023-11-19T02:55:59;12.83;;;4.17;;
48861;SDS011;34681;49.188;-0.374;2023-11-19T02:58:37;12.73;;;4.70;;
48861;SDS011;34681;49.188;-0.374;2023-11-19T03:01:04;8.60;;;3.23;;
48861;SDS011;34681;49.188;-0.374;2023-11-19T03:03:37;13.87;;;3.53;;
48861;SDS011;34681;49.188;-0.374;2023-11-19T03:06:05;11.33;;;3.80;;
48861;SDS011;34681;49.188;-0.374;2023-11-19T03:08:31;11.87;;;3.70;;
48861;SDS011;34681;49.188;-0.374;2023-11-19T03:10:57;17.20;;;4.10;;
48861;SDS011;34681;49.188;-0.374;2023-11-19T03:13:24;10.67;;;4.10;;
48861;SDS011;34681;49.188;-0.374;2023-11-19T03:15:49;12.20;;;4.20;;
48861;SDS011;34681;49.188;-0.374;2023-11-19T03:18:16;9.27;;;3.20;;
48861;SDS011;34681;49.188;-0.374;2023-11-19T03:20:41;15.67;;;3.90;;
48861;SDS011;34681;49.188;-0.374;2023-11-19T03:23:07;13.63;;;4.70;;
48861;SDS011;34681;49.188;-0.374;2023-11-19T03:25:32;12.53;;;4.20;;
48861;SDS011;34681;49.188;-0.374;2023-11-19T03:28:02;10.83;;;4.20;;
48861;SDS011;34681;49.188;-0.374;2023-11-19T03:30:28;13.27;;;3.83;;
48861;SDS011;34681;49.188;-0.374;2023-11-19T03:32:55;15.03;;;3.90;;
48861;SDS011;34681;49.188;-0.374;2023-11-19T03:35:20;17.73;;;3.70;;
48861;SDS011;34681;49.188;-0.374;2023-11-19T03:37:46;17.30;;;3.60;;
48861;SDS011;34681;49.188;-0.374;2023-11-19T03:40:11;11.53;;;3.50;;
48861;SDS011;34681;49.188;-0.374;2023-11-19T03:42:37;9.70;;;3.53;;
48861;SDS011;34681;49.188;-0.374;2023-11-19T03:45:04;11.33;;;3.20;;
48861;SDS011;34681;49.188;-0.374;2023-11-19T03:47:32;13.40;;;4.17;;
48861;SDS011;34681;49.188;-0.374;2023-11-19T03:49:57;8.57;;;3.57;;
48861;SDS011;34681;49.188;-0.374;2023-11-19T03:52:22;13.23;;;3.90;;
48861;SDS011;34681;49.188;-0.374;2023-11-19T03:54:48;10.73;;;4.00;;
48861;SDS011;34681;49.188;-0.374;2023-11-19T03:57:13;15.90;;;4.23;;
48861;SDS011;34681;49.188;-0.374;2023-11-19T03:59:38;9.50;;;3.70;;
48861;SDS011;34681;49.188;-0.374;2023-11-19T04:02:04;15.30;;;3.63;;
48861;SDS011;34681;49.188;-0.374;2023-11-19T04:04:30;13.43;;;4.33;;
48861;SDS011;34681;49.188;-0.374;2023-11-19T04:06:55;12.67;;;4.10;;
48861;SDS011;34681;49.188;-0.374;2023-11-19T04:09:21;9.73;;;3.53;;
48861;SDS011;34681;49.188;-0.374;2023-11-19T04:11:47;11.30;;;3.80;;
48861;SDS011;34681;49.188;-0.374;2023-11-19T04:14:13;16.33;;;4.20;;
48861;SDS011;34681;49.188;-0.374;2023-11-19T04:16:38;13.00;;;3.97;;
48861;SDS011;34681;49.188;-0.374;2023-11-19T04:19:04;8.07;;;3.60;;
48861;SDS011;34681;49.188;-0.374;2023-11-19T04:21:30;12.97;;;5.50;;
48861;SDS011;34681;49.188;-0.374;2023-11-19T04:23:55;7.83;;;3.80;;
48861;SDS011;34681;49.188;-0.374;2023-11-19T04:26:21;9.73;;;4.43;;
48861;SDS011;34681;49.188;-0.374;2023-11-19T04:28:46;13.73;;;3.60;;
48861;SDS011;34681;49.188;-0.374;2023-11-19T04:31:11;12.90;;;4.10;;
48861;SDS011;34681;49.188;-0.374;2023-11-19T04:33:37;15.23;;;4.10;;
48861;SDS011;34681;49.188;-0.374;2023-11-19T04:36:02;10.73;;;3.33;;
48861;SDS011;34681;49.188;-0.374;2023-11-19T04:38:27;10.20;;;3.77;;
48861;SDS011;34681;49.188;-0.374;2023-11-19T04:40:53;14.67;;;3.77;;
48861;SDS011;34681;49.188;-0.374;2023-11-19T04:43:18;12.53;;;4.10;;
48861;SDS011;34681;49.188;-0.374;2023-11-19T04:45:45;20.80;;;4.23;;
48861;SDS011;34681;49.188;-0.374;2023-11-19T04:48:11;15.10;;;4.47;;
48861;SDS011;34681;49.188;-0.374;2023-11-19T04:50:37;11.30;;;3.90;;
48861;SDS011;34681;49.188;-0.374;2023-11-19T04:53:02;13.83;;;3.83;;
48861;SDS011;34681;49.188;-0.374;2023-11-19T04:55:28;16.20;;;4.67;;
48861;SDS011;34681;49.188;-0.374;2023-11-19T04:57:54;15.47;;;3.97;;
48861;SDS011;34681;49.188;-0.374;2023-11-19T05:00:19;10.70;;;4.37;;
48861;SDS011;34681;49.188;-0.374;2023-11-19T05:02:46;22.50;;;4.97;;
48861;SDS011;34681;49.188;-0.374;2023-11-19T05:05:11;10.37;;;4.80;;
48861;SDS011;34681;49.188;-0.374;2023-11-19T05:07:37;14.17;;;4.50;;
48861;SDS011;34681;49.188;-0.374;2023-11-19T05:10:03;8.57;;;5.37;;
48861;SDS011;34681;49.188;-0.374;2023-11-19T05:12:29;14.43;;;5.10;;
48861;SDS011;34681;49.188;-0.374;2023-11-19T05:14:54;13.20;;;4.70;;
48861;SDS011;34681;49.188;-0.374;2023-11-19T05:17:20;9.57;;;3.27;;
48861;SDS011;34681;49.188;-0.374;2023-11-19T05:19:45;13.53;;;4.70;;
48861;SDS011;34681;49.188;-0.374;2023-11-19T05:22:12;9.67;;;4.40;;
48861;SDS011;34681;49.188;-0.374;2023-11-19T05:24:38;13.90;;;4.13;;
48861;SDS011;34681;49.188;-0.374;2023-11-19T05:27:04;19.13;;;4.77;;
48861;SDS011;34681;49.188;-0.374;2023-11-19T05:29:30;11.27;;;4.20;;
48861;SDS011;34681;49.188;-0.374;2023-11-19T05:31:55;15.43;;;4.10;;
48861;SDS011;34681;49.188;-0.374;2023-11-19T05:34:20;15.77;;;4.00;;
48861;SDS011;34681;49.188;-0.374;2023-11-19T05:36:46;12.00;;;4.03;;
48861;SDS011;34681;49.188;-0.374;2023-11-19T05:39:11;17.60;;;4.50;;
48861;SDS011;34681;49.188;-0.374;2023-11-19T05:41:37;17.13;;;4.03;;
48861;SDS011;34681;49.188;-0.374;2023-11-19T05:44:02;14.67;;;4.33;;
48861;SDS011;34681;49.188;-0.374;2023-11-19T05:46:27;12.80;;;4.63;;
48861;SDS011;34681;49.188;-0.374;2023-11-19T05:48:53;8.73;;;4.20;;
48861;SDS011;34681;49.188;-0.374;2023-11-19T05:51:18;13.47;;;4.07;;
48861;SDS011;34681;49.188;-0.374;2023-11-19T05:53:44;17.33;;;4.87;;
48861;SDS011;34681;49.188;-0.374;2023-11-19T05:56:10;12.57;;;4.37;;
48861;SDS011;34681;49.188;-0.374;2023-11-19T05:58:36;19.57;;;5.50;;
48861;SDS011;34681;49.188;-0.374;2023-11-19T06:01:02;16.30;;;5.10;;
48861;SDS011;34681;49.188;-0.374;2023-11-19T06:03:28;11.67;;;4.53;;
48861;SDS011;34681;49.188;-0.374;2023-11-19T06:05:54;18.20;;;5.20;;
48861;SDS011;34681;49.188;-0.374;2023-11-19T06:08:19;15.63;;;4.70;;
48861;SDS011;34681;49.188;-0.374;2023-11-19T06:10:45;16.50;;;5.13;;
48861;SDS011;34681;49.188;-0.374;2023-11-19T06:13:11;21.07;;;5.07;;
48861;SDS011;34681;49.188;-0.374;2023-11-19T06:15:37;17.30;;;5.87;;
48861;SDS011;34681;49.188;-0.374;2023-11-19T06:18:03;22.43;;;5.13;;
48861;SDS011;34681;49.188;-0.374;2023-11-19T06:20:32;19.60;;;5.97;;
48861;SDS011;34681;49.188;-0.374;2023-11-19T06:22:58;22.17;;;5.90;;
48861;SDS011;34681;49.188;-0.374;2023-11-19T06:25:23;16.07;;;3.90;;
48861;SDS011;34681;49.188;-0.374;2023-11-19T06:27:52;13.37;;;4.67;;
48861;SDS011;34681;49.188;-0.374;2023-11-19T06:30:18;15.97;;;4.37;;
48861;SDS011;34681;49.188;-0.374;2023-11-19T06:32:44;20.17;;;6.20;;
48861;SDS011;34681;49.188;-0.374;2023-11-19T06:35:09;14.80;;;4.77;;
48861;SDS011;34681;49.188;-0.374;2023-11-19T06:37:35;12.87;;;4.30;;
48861;SDS011;34681;49.188;-0.374;2023-11-19T06:40:03;15.97;;;5.07;;
48861;SDS011;34681;49.188;-0.374;2023-11-19T06:42:30;22.70;;;5.87;;
48861;SDS011;34681;49.188;-0.374;2023-11-19T06:44:55;15.57;;;5.50;;
48861;SDS011;34681;49.188;-0.374;2023-11-19T06:47:22;16.87;;;5.20;;
48861;SDS011;34681;49.188;-0.374;2023-11-19T06:49:47;12.60;;;4.83;;
48861;SDS011;34681;49.188;-0.374;2023-11-19T06:52:12;17.70;;;4.40;;
48861;SDS011;34681;49.188;-0.374;2023-11-19T06:54:39;17.83;;;5.03;;
48861;SDS011;34681;49.188;-0.374;2023-11-19T06:57:04;15.30;;;4.10;;
48861;SDS011;34681;49.188;-0.374;2023-11-19T06:59:30;16.73;;;4.97;;
48861;SDS011;34681;49.188;-0.374;2023-11-19T07:01:55;16.87;;;4.73;;
48861;SDS011;34681;49.188;-0.374;2023-11-19T07:04:21;21.13;;;4.77;;
48861;SDS011;34681;49.188;-0.374;2023-11-19T07:06:46;24.10;;;6.00;;
48861;SDS011;34681;49.188;-0.374;2023-11-19T07:09:13;25.03;;;5.70;;
48861;SDS011;34681;49.188;-0.374;2023-11-19T07:11:39;19.23;;;4.90;;
48861;SDS011;34681;49.188;-0.374;2023-11-19T07:14:05;14.60;;;5.27;;
48861;SDS011;34681;49.188;-0.374;2023-11-19T07:16:34;17.17;;;4.23;;
48861;SDS011;34681;49.188;-0.374;2023-11-19T07:19:02;16.97;;;4.93;;
48861;SDS011;34681;49.188;-0.374;2023-11-19T07:21:27;19.53;;;5.80;;
48861;SDS011;34681;49.188;-0.374;2023-11-19T07:23:53;21.40;;;6.00;;
48861;SDS011;34681;49.188;-0.374;2023-11-19T07:26:19;18.57;;;5.47;;
48861;SDS011;34681;49.188;-0.374;2023-11-19T07:28:44;17.03;;;6.23;;
48861;SDS011;34681;49.188;-0.374;2023-11-19T07:31:10;14.33;;;5.27;;
48861;SDS011;34681;49.188;-0.374;2023-11-19T07:33:35;23.00;;;6.07;;
48861;SDS011;34681;49.188;-0.374;2023-11-19T07:36:01;25.60;;;6.13;;
48861;SDS011;34681;49.188;-0.374;2023-11-19T07:38:26;23.13;;;6.37;;
48861;SDS011;34681;49.188;-0.374;2023-11-19T07:40:52;25.67;;;6.33;;
48861;SDS011;34681;49.188;-0.374;2023-11-19T07:43:17;21.23;;;5.70;;
48861;SDS011;34681;49.188;-0.374;2023-11-19T07:45:42;23.27;;;6.83;;
48861;SDS011;34681;49.188;-0.374;2023-11-19T07:48:11;18.17;;;6.70;;
48861;SDS011;34681;49.188;-0.374;2023-11-19T07:50:38;24.13;;;7.07;;
48861;SDS011;34681;49.188;-0.374;2023-11-19T07:53:05;23.77;;;6.43;;
48861;SDS011;34681;49.188;-0.374;2023-11-19T07:55:31;22.83;;;7.03;;
48861;SDS011;34681;49.188;-0.374;2023-11-19T07:57:56;23.23;;;5.90;;
48861;SDS011;34681;49.188;-0.374;2023-11-19T08:00:21;22.93;;;6.23;;
48861;SDS011;34681;49.188;-0.374;2023-11-19T08:02:47;30.23;;;8.13;;
48861;SDS011;34681;49.188;-0.374;2023-11-19T08:05:12;18.20;;;6.27;;
48861;SDS011;34681;49.188;-0.374;2023-11-19T08:07:37;18.23;;;5.20;;
48861;SDS011;34681;49.188;-0.374;2023-11-19T08:10:04;22.33;;;6.10;;
48861;SDS011;34681;49.188;-0.374;2023-11-19T08:12:30;21.30;;;5.73;;
48861;SDS011;34681;49.188;-0.374;2023-11-19T08:14:56;21.97;;;5.93;;
48861;SDS011;34681;49.188;-0.374;2023-11-19T08:17:23;31.67;;;5.43;;
48861;SDS011;34681;49.188;-0.374;2023-11-19T08:19:49;20.90;;;6.57;;
48861;SDS011;34681;49.188;-0.374;2023-11-19T08:22:14;20.80;;;6.13;;
48861;SDS011;34681;49.188;-0.374;2023-11-19T08:24:39;22.03;;;6.03;;
48861;SDS011;34681;49.188;-0.374;2023-11-19T08:27:04;27.37;;;6.60;;
48861;SDS011;34681;49.188;-0.374;2023-11-19T08:29:30;17.53;;;5.30;;
48861;SDS011;34681;49.188;-0.374;2023-11-19T08:31:55;17.13;;;6.27;;
48861;SDS011;34681;49.188;-0.374;2023-11-19T08:34:20;25.03;;;6.90;;
48861;SDS011;34681;49.188;-0.374;2023-11-19T08:36:46;13.00;;;4.83;;
48861;SDS011;34681;49.188;-0.374;2023-11-19T08:39:15;20.70;;;5.40;;
48861;SDS011;34681;49.188;-0.374;2023-11-19T08:41:40;19.30;;;5.90;;
48861;SDS011;34681;49.188;-0.374;2023-11-19T08:44:06;18.63;;;5.40;;
48861;SDS011;34681;49.188;-0.374;2023-11-19T08:46:32;18.73;;;5.77;;
48861;SDS011;34681;49.188;-0.374;2023-11-19T08:48:57;21.73;;;5.97;;
48861;SDS011;34681;49.188;-0.374;2023-11-19T08:51:23;15.07;;;5.30;;
48861;SDS011;34681;49.188;-0.374;2023-11-19T08:53:50;22.60;;;4.70;;
48861;SDS011;34681;49.188;-0.374;2023-11-19T08:56:15;15.80;;;5.30;;
48861;SDS011;34681;49.188;-0.374;2023-11-19T08:58:40;15.20;;;5.60;;
48861;SDS011;34681;49.188;-0.374;2023-11-19T09:01:05;27.20;;;6.27;;
48861;SDS011;34681;49.188;-0.374;2023-11-19T09:03:31;24.63;;;6.70;;
48861;SDS011;34681;49.188;-0.374;2023-11-19T09:05:56;20.47;;;6.43;;
48861;SDS011;34681;49.188;-0.374;2023-11-19T09:08:22;21.70;;;6.73;;
48861;SDS011;34681;49.188;-0.374;2023-11-19T09:10:47;24.03;;;6.90;;
48861;SDS011;34681;49.188;-0.374;2023-11-19T09:13:13;29.43;;;6.70;;
48861;SDS011;34681;49.188;-0.374;2023-11-19T09:15:38;17.73;;;6.83;;
48861;SDS011;34681;49.188;-0.374;2023-11-19T09:18:03;34.67;;;8.60;;
48861;SDS011;34681;49.188;-0.374;2023-11-19T09:20:29;14.73;;;6.10;;
48861;SDS011;34681;49.188;-0.374;2023-11-19T09:23:02;21.57;;;6.00;;
48861;SDS011;34681;49.188;-0.374;2023-11-19T09:25:28;20.63;;;6.27;;
48861;SDS011;34681;49.188;-0.374;2023-11-19T09:27:53;19.37;;;5.37;;
48861;SDS011;34681;49.188;-0.374;2023-11-19T09:30:18;15.10;;;5.00;;
48861;SDS011;34681;49.188;-0.374;2023-11-19T09:32:44;18.67;;;5.30;;
48861;SDS011;34681;49.188;-0.374;2023-11-19T09:35:09;20.63;;;6.30;;
48861;SDS011;34681;49.188;-0.374;2023-11-19T09:37:38;18.73;;;4.93;;
48861;SDS011;34681;49.188;-0.374;2023-11-19T09:40:04;26.73;;;6.77;;
48861;SDS011;34681;49.188;-0.374;2023-11-19T09:42:30;23.73;;;6.23;;
48861;SDS011;34681;49.188;-0.374;2023-11-19T09:45:07;24.40;;;6.70;;
48861;SDS011;34681;49.188;-0.374;2023-11-19T09:47:39;18.83;;;6.10;;
48861;SDS011;34681;49.188;-0.374;2023-11-19T09:50:05;23.50;;;6.53;;
48861;SDS011;34681;49.188;-0.374;2023-11-19T09:52:31;19.57;;;7.67;;
48861;SDS011;34681;49.188;-0.374;2023-11-19T09:54:56;16.47;;;5.47;;
48861;SDS011;34681;49.188;-0.374;2023-11-19T09:57:21;22.63;;;5.70;;
48861;SDS011;34681;49.188;-0.374;2023-11-19T09:59:47;23.80;;;5.87;;
48861;SDS011;34681;49.188;-0.374;2023-11-19T10:02:12;15.63;;;5.23;;
48861;SDS011;34681;49.188;-0.374;2023-11-19T10:04:39;20.50;;;5.67;;
48861;SDS011;34681;49.188;-0.374;2023-11-19T10:07:07;13.27;;;5.43;;
48861;SDS011;34681;49.188;-0.374;2023-11-19T10:09:33;20.23;;;5.90;;
48861;SDS011;34681;49.188;-0.374;2023-11-19T10:11:59;21.33;;;6.90;;
48861;SDS011;34681;49.188;-0.374;2023-11-19T10:14:24;33.47;;;7.47;;
48861;SDS011;34681;49.188;-0.374;2023-11-19T10:16:50;19.07;;;6.30;;
48861;SDS011;34681;49.188;-0.374;2023-11-19T10:19:19;20.40;;;5.43;;
48861;SDS011;34681;49.188;-0.374;2023-11-19T10:21:47;15.80;;;5.60;;
48861;SDS011;34681;49.188;-0.374;2023-11-19T10:24:13;19.40;;;6.27;;
48861;SDS011;34681;49.188;-0.374;2023-11-19T10:26:38;22.77;;;6.93;;
48861;SDS011;34681;49.188;-0.374;2023-11-19T10:29:05;17.70;;;5.03;;
48861;SDS011;34681;49.188;-0.374;2023-11-19T10:31:30;19.00;;;5.77;;
48861;SDS011;34681;49.188;-0.374;2023-11-19T10:33:56;16.47;;;6.07;;
48861;SDS011;34681;49.188;-0.374;2023-11-19T10:36:22;25.03;;;6.40;;
48861;SDS011;34681;49.188;-0.374;2023-11-19T10:38:55;19.77;;;4.90;;
48861;SDS011;34681;49.188;-0.374;2023-11-19T10:41:27;14.43;;;4.70;;
48861;SDS011;34681;49.188;-0.374;2023-11-19T10:43:53;16.47;;;6.70;;
48861;SDS011;34681;49.188;-0.374;2023-11-19T10:46:19;20.63;;;5.40;;
48861;SDS011;34681;49.188;-0.374;2023-11-19T10:48:48;19.83;;;7.67;;
48861;SDS011;34681;49.188;-0.374;2023-11-19T10:51:13;15.80;;;5.07;;
48861;SDS011;34681;49.188;-0.374;2023-11-19T10:53:48;17.90;;;5.43;;
48861;SDS011;34681;49.188;-0.374;2023-11-19T10:56:15;14.53;;;5.70;;
48861;SDS011;34681;49.188;-0.374;2023-11-19T10:58:44;21.43;;;6.40;;
48861;SDS011;34681;49.188;-0.374;2023-11-19T11:01:13;31.03;;;6.33;;
48861;SDS011;34681;49.188;-0.374;2023-11-19T11:03:43;14.37;;;5.17;;
48861;SDS011;34681;49.188;-0.374;2023-11-19T11:06:10;25.73;;;6.00;;
48861;SDS011;34681;49.188;-0.374;2023-11-19T11:08:38;18.73;;;6.03;;
48861;SDS011;34681;49.188;-0.374;2023-11-19T11:11:04;21.80;;;6.43;;
48861;SDS011;34681;49.188;-0.374;2023-11-19T11:13:31;13.57;;;6.27;;
48861;SDS011;34681;49.188;-0.374;2023-11-19T11:15:57;21.03;;;6.30;;
48861;SDS011;34681;49.188;-0.374;2023-11-19T11:18:23;14.30;;;4.63;;
48861;SDS011;34681;49.188;-0.374;2023-11-19T11:20:54;20.13;;;6.40;;
48861;SDS011;34681;49.188;-0.374;2023-11-19T11:32:43;19.13;;;6.20;;
48861;SDS011;34681;49.188;-0.374;2023-11-19T11:35:23;20.97;;;6.33;;
48861;SDS011;34681;49.188;-0.374;2023-11-19T11:37:50;23.83;;;6.03;;
48861;SDS011;34681;49.188;-0.374;2023-11-19T11:40:22;17.63;;;5.77;;
48861;SDS011;34681;49.188;-0.374;2023-11-19T11:42:48;14.23;;;4.30;;
48861;SDS011;34681;49.188;-0.374;2023-11-19T11:45:14;18.87;;;5.60;;
48861;SDS011;34681;49.188;-0.374;2023-11-19T11:50:16;15.10;;;4.70;;
48861;SDS011;34681;49.188;-0.374;2023-11-19T11:55:34;19.23;;;6.23;;
48861;SDS011;34681;49.188;-0.374;2023-11-19T11:58:07;20.40;;;6.80;;
48861;SDS011;34681;49.188;-0.374;2023-11-19T12:00:37;22.33;;;5.17;;
48861;SDS011;34681;49.188;-0.374;2023-11-19T12:03:04;11.47;;;5.50;;
48861;SDS011;34681;49.188;-0.374;2023-11-19T12:05:31;17.93;;;5.10;;
48861;SDS011;34681;49.188;-0.374;2023-11-19T12:08:05;12.13;;;4.37;;
48861;SDS011;34681;49.188;-0.374;2023-11-19T12:10:45;13.40;;;4.60;;
48861;SDS011;34681;49.188;-0.374;2023-11-19T12:13:12;17.60;;;4.67;;
48861;SDS011;34681;49.188;-0.374;2023-11-19T12:18:28;17.57;;;5.43;;
48861;SDS011;34681;49.188;-0.374;2023-11-19T12:20:55;11.37;;;5.23;;
48861;SDS011;34681;49.188;-0.374;2023-11-19T12:23:24;14.50;;;5.00;;
48861;SDS011;34681;49.188;-0.374;2023-11-19T12:25:51;20.17;;;6.03;;
48861;SDS011;34681;49.188;-0.374;2023-11-19T12:28:16;17.20;;;5.43;;
48861;SDS011;34681;49.188;-0.374;2023-11-19T12:30:42;15.73;;;6.17;;
48861;SDS011;34681;49.188;-0.374;2023-11-19T12:33:09;27.77;;;6.70;;
48861;SDS011;34681;49.188;-0.374;2023-11-19T12:35:42;17.00;;;5.13;;
48861;SDS011;34681;49.188;-0.374;2023-11-19T12:38:17;14.20;;;5.30;;
48861;SDS011;34681;49.188;-0.374;2023-11-19T12:40:44;15.63;;;5.80;;
48861;SDS011;34681;49.188;-0.374;2023-11-19T12:43:09;12.30;;;6.27;;
48861;SDS011;34681;49.188;-0.374;2023-11-19T12:45:35;13.70;;;6.37;;
48861;SDS011;34681;49.188;-0.374;2023-11-19T12:48:07;23.43;;;6.17;;
48861;SDS011;34681;49.188;-0.374;2023-11-19T12:50:53;15.00;;;5.67;;
48861;SDS011;34681;49.188;-0.374;2023-11-19T12:53:21;17.20;;;5.10;;
48861;SDS011;34681;49.188;-0.374;2023-11-19T12:55:47;12.30;;;5.43;;
48861;SDS011;34681;49.188;-0.374;2023-11-19T12:58:32;16.17;;;5.13;;
48861;SDS011;34681;49.188;-0.374;2023-11-19T13:01:02;14.80;;;5.60;;
48861;SDS011;34681;49.188;-0.374;2023-11-19T13:03:29;13.40;;;6.10;;
48861;SDS011;34681;49.188;-0.374;2023-11-19T13:06:03;18.17;;;5.50;;
48861;SDS011;34681;49.188;-0.374;2023-11-19T13:08:42;19.23;;;5.40;;
48861;SDS011;34681;49.188;-0.374;2023-11-19T13:11:09;23.53;;;5.90;;
48861;SDS011;34681;49.188;-0.374;2023-11-19T13:14:21;17.70;;;5.50;;
48861;SDS011;34681;49.188;-0.374;2023-11-19T13:16:33;23.00;;;6.27;;
48861;SDS011;34681;49.188;-0.374;2023-11-19T13:19:01;17.53;;;5.80;;
48861;SDS011;34681;49.188;-0.374;2023-11-19T13:21:26;13.30;;;4.33;;
48861;SDS011;34681;49.188;-0.374;2023-11-19T13:23:52;15.00;;;6.67;;
48861;SDS011;34681;49.188;-0.374;2023-11-19T13:26:17;14.63;;;5.47;;
48861;SDS011;34681;49.188;-0.374;2023-11-19T13:28:42;9.13;;;4.20;;
48861;SDS011;34681;49.188;-0.374;2023-11-19T13:31:08;11.60;;;4.73;;
48861;SDS011;34681;49.188;-0.374;2023-11-19T13:33:33;13.40;;;4.60;;
48861;SDS011;34681;49.188;-0.374;2023-11-19T13:35:59;12.37;;;4.40;;
48861;SDS011;34681;49.188;-0.374;2023-11-19T13:38:30;12.97;;;4.70;;
48861;SDS011;34681;49.188;-0.374;2023-11-19T13:40:55;18.77;;;5.37;;
48861;SDS011;34681;49.188;-0.374;2023-11-19T13:43:21;12.53;;;4.30;;
48861;SDS011;34681;49.188;-0.374;2023-11-19T13:45:46;15.90;;;4.80;;
48861;SDS011;34681;49.188;-0.374;2023-11-19T13:48:11;15.37;;;4.17;;
48861;SDS011;34681;49.188;-0.374;2023-11-19T13:50:37;15.10;;;4.57;;
48861;SDS011;34681;49.188;-0.374;2023-11-19T13:53:02;8.40;;;4.20;;
48861;SDS011;34681;49.188;-0.374;2023-11-19T13:55:29;12.93;;;4.23;;
48861;SDS011;34681;49.188;-0.374;2023-11-19T13:57:55;15.47;;;4.93;;
48861;SDS011;34681;49.188;-0.374;2023-11-19T14:00:20;7.10;;;3.73;;
48861;SDS011;34681;49.188;-0.374;2023-11-19T14:02:48;11.90;;;4.37;;
48861;SDS011;34681;49.188;-0.374;2023-11-19T14:05:14;13.40;;;3.97;;
48861;SDS011;34681;49.188;-0.374;2023-11-19T14:07:42;13.27;;;3.70;;
48861;SDS011;34681;49.188;-0.374;2023-11-19T14:10:08;10.43;;;3.83;;
48861;SDS011;34681;49.188;-0.374;2023-11-19T14:12:34;11.20;;;3.33;;
48861;SDS011;34681;49.188;-0.374;2023-11-19T14:15:01;12.30;;;4.30;;
48861;SDS011;34681;49.188;-0.374;2023-11-19T14:17:26;11.33;;;3.63;;
48861;SDS011;34681;49.188;-0.374;2023-11-19T14:19:52;16.47;;;3.80;;
48861;SDS011;34681;49.188;-0.374;2023-11-19T14:22:17;12.33;;;4.03;;
48861;SDS011;34681;49.188;-0.374;2023-11-19T14:24:42;10.33;;;4.33;;
48861;SDS011;34681;49.188;-0.374;2023-11-19T14:27:08;12.30;;;4.90;;
48861;SDS011;34681;49.188;-0.374;2023-11-19T14:29:34;10.50;;;4.27;;
48861;SDS011;34681;49.188;-0.374;2023-11-19T14:32:00;15.10;;;5.17;;
48861;SDS011;34681;49.188;-0.374;2023-11-19T14:34:26;9.93;;;4.77;;
48861;SDS011;34681;49.188;-0.374;2023-11-19T14:36:58;14.97;;;5.70;;
48861;SDS011;34681;49.188;-0.374;2023-11-19T14:39:24;14.87;;;5.80;;